sensor_id;sensor_type;location;lat;lon;timestamp;pressure;altitude;pressure_sealevel;temperature
40199;BMP280;25906;43.536;26.068;2024-01-30T00:00:30;101163.31;;;0.55
40199;BMP280;25906;43.536;26.068;2024-01-30T00:03:15;101160.75;;;0.36
40199;BMP280;25906;43.536;26.068;2024-01-30T00:06:03;101162.56;;;0.68
40199;BMP280;25906;43.536;26.068;2024-01-30T00:08:48;101164.13;;;0.36
40199;BMP280;25906;43.536;26.068;2024-01-30T00:11:34;101165.09;;;0.27
40199;BMP280;25906;43.536;26.068;2024-01-30T00:14:19;101162.97;;;0.43
40199;BMP280;25906;43.536;26.068;2024-01-30T00:17:05;101168.81;;;0.21
40199;BMP280;25906;43.536;26.068;2024-01-30T00:19:50;101170.38;;;0.35
40199;BMP280;25906;43.536;26.068;2024-01-30T00:22:36;101162.78;;;0.39
40199;BMP280;25906;43.536;26.068;2024-01-30T00:25:21;101156.03;;;0.38
40199;BMP280;25906;43.536;26.068;2024-01-30T00:28:06;101159.44;;;0.52
40199;BMP280;25906;43.536;26.068;2024-01-30T00:30:52;101167.00;;;0.35
40199;BMP280;25906;43.536;26.068;2024-01-30T00:33:40;101166.16;;;0.39
40199;BMP280;25906;43.536;26.068;2024-01-30T00:36:26;101160.88;;;0.31
40199;BMP280;25906;43.536;26.068;2024-01-30T00:39:12;101168.53;;;0.22
40199;BMP280;25906;43.536;26.068;2024-01-30T00:42:00;101161.50;;;0.23
40199;BMP280;25906;43.536;26.068;2024-01-30T00:44:46;101170.66;;;0.20
40199;BMP280;25906;43.536;26.068;2024-01-30T00:47:31;101173.03;;;0.17
40199;BMP280;25906;43.536;26.068;2024-01-30T00:50:18;101174.22;;;0.24
40199;BMP280;25906;43.536;26.068;2024-01-30T00:53:03;101166.50;;;0.19
40199;BMP280;25906;43.536;26.068;2024-01-30T00:55:49;101169.19;;;0.14
40199;BMP280;25906;43.536;26.068;2024-01-30T00:58:34;101166.09;;;0.12
40199;BMP280;25906;43.536;26.068;2024-01-30T01:01:19;101174.03;;;0.34
40199;BMP280;25906;43.536;26.068;2024-01-30T01:04:05;101167.06;;;0.16
40199;BMP280;25906;43.536;26.068;2024-01-30T01:06:50;101165.34;;;0.25
40199;BMP280;25906;43.536;26.068;2024-01-30T01:09:36;101169.50;;;0.26
40199;BMP280;25906;43.536;26.068;2024-01-30T01:12:21;101157.06;;;0.23
40199;BMP280;25906;43.536;26.068;2024-01-30T01:15:07;101156.59;;;0.21
40199;BMP280;25906;43.536;26.068;2024-01-30T01:17:57;101161.00;;;0.21
40199;BMP280;25906;43.536;26.068;2024-01-30T01:20:42;101159.25;;;0.16
40199;BMP280;25906;43.536;26.068;2024-01-30T01:23:28;101164.81;;;0.28
40199;BMP280;25906;43.536;26.068;2024-01-30T01:26:13;101163.84;;;0.38
40199;BMP280;25906;43.536;26.068;2024-01-30T01:28:58;101159.41;;;0.38
40199;BMP280;25906;43.536;26.068;2024-01-30T01:31:44;101164.69;;;0.01
40199;BMP280;25906;43.536;26.068;2024-01-30T01:34:29;101161.53;;;0.04
40199;BMP280;25906;43.536;26.068;2024-01-30T01:37:15;101155.47;;;0.09
40199;BMP280;25906;43.536;26.068;2024-01-30T01:40:00;101158.41;;;0.21
40199;BMP280;25906;43.536;26.068;2024-01-30T01:42:46;101155.13;;;0.15
40199;BMP280;25906;43.536;26.068;2024-01-30T01:45:31;101154.22;;;0.06
40199;BMP280;25906;43.536;26.068;2024-01-30T01:48:17;101156.31;;;0.04
40199;BMP280;25906;43.536;26.068;2024-01-30T01:51:02;101154.50;;;0.05
40199;BMP280;25906;43.536;26.068;2024-01-30T01:53:48;101157.81;;;-0.09
40199;BMP280;25906;43.536;26.068;2024-01-30T01:56:34;101157.22;;;-0.06
40199;BMP280;25906;43.536;26.068;2024-01-30T01:59:20;101146.97;;;0.03
40199;BMP280;25906;43.536;26.068;2024-01-30T02:02:08;101153.03;;;-0.02
40199;BMP280;25906;43.536;26.068;2024-01-30T02:04:57;101150.69;;;-0.03
40199;BMP280;25906;43.536;26.068;2024-01-30T02:07:43;101150.06;;;0.05
40199;BMP280;25906;43.536;26.068;2024-01-30T02:10:29;101152.56;;;0.10
40199;BMP280;25906;43.536;26.068;2024-01-30T02:13:14;101153.47;;;0.19
40199;BMP280;25906;43.536;26.068;2024-01-30T02:16:00;101151.47;;;-0.03
40199;BMP280;25906;43.536;26.068;2024-01-30T02:18:46;101153.84;;;-0.06
40199;BMP280;25906;43.536;26.068;2024-01-30T02:21:33;101151.63;;;0.06
40199;BMP280;25906;43.536;26.068;2024-01-30T02:24:18;101148.22;;;0.06
40199;BMP280;25906;43.536;26.068;2024-01-30T02:27:04;101148.28;;;0.00
40199;BMP280;25906;43.536;26.068;2024-01-30T02:29:49;101153.72;;;0.04
40199;BMP280;25906;43.536;26.068;2024-01-30T02:32:35;101153.84;;;-0.06
40199;BMP280;25906;43.536;26.068;2024-01-30T02:35:20;101154.78;;;0.03
40199;BMP280;25906;43.536;26.068;2024-01-30T02:38:05;101151.84;;;-0.09
40199;BMP280;25906;43.536;26.068;2024-01-30T02:40:51;101151.06;;;-0.10
40199;BMP280;25906;43.536;26.068;2024-01-30T02:43:36;101156.41;;;-0.01
40199;BMP280;25906;43.536;26.068;2024-01-30T02:46:22;101163.84;;;-0.13
40199;BMP280;25906;43.536;26.068;2024-01-30T02:49:07;101150.34;;;-0.15
40199;BMP280;25906;43.536;26.068;2024-01-30T02:51:53;101153.09;;;-0.07
40199;BMP280;25906;43.536;26.068;2024-01-30T02:54:39;101156.97;;;-0.23
40199;BMP280;25906;43.536;26.068;2024-01-30T02:57:24;101148.81;;;-0.16
40199;BMP280;25906;43.536;26.068;2024-01-30T03:00:10;101152.38;;;-0.12
40199;BMP280;25906;43.536;26.068;2024-01-30T03:02:56;101146.28;;;-0.21
40199;BMP280;25906;43.536;26.068;2024-01-30T03:05:41;101145.41;;;0.02
40199;BMP280;25906;43.536;26.068;2024-01-30T03:08:26;101145.09;;;-0.10
40199;BMP280;25906;43.536;26.068;2024-01-30T03:11:12;101139.75;;;-0.19
40199;BMP280;25906;43.536;26.068;2024-01-30T03:13:57;101137.97;;;-0.23
40199;BMP280;25906;43.536;26.068;2024-01-30T03:16:43;101143.63;;;-0.16
40199;BMP280;25906;43.536;26.068;2024-01-30T03:19:28;101139.66;;;-0.14
40199;BMP280;25906;43.536;26.068;2024-01-30T03:22:14;101135.09;;;-0.03
40199;BMP280;25906;43.536;26.068;2024-01-30T03:24:59;101134.03;;;-0.02
40199;BMP280;25906;43.536;26.068;2024-01-30T03:27:44;101132.06;;;-0.10
40199;BMP280;25906;43.536;26.068;2024-01-30T03:30:30;101131.66;;;-0.17
40199;BMP280;25906;43.536;26.068;2024-01-30T03:33:15;101132.56;;;-0.08
40199;BMP280;25906;43.536;26.068;2024-01-30T03:36:04;101129.31;;;0.00
40199;BMP280;25906;43.536;26.068;2024-01-30T03:38:50;101133.84;;;0.08
40199;BMP280;25906;43.536;26.068;2024-01-30T03:41:37;101131.34;;;-0.16
40199;BMP280;25906;43.536;26.068;2024-01-30T03:44:22;101134.25;;;-0.17
40199;BMP280;25906;43.536;26.068;2024-01-30T03:47:07;101139.00;;;-0.06
40199;BMP280;25906;43.536;26.068;2024-01-30T03:49:53;101132.47;;;-0.03
40199;BMP280;25906;43.536;26.068;2024-01-30T03:52:38;101137.28;;;-0.10
40199;BMP280;25906;43.536;26.068;2024-01-30T03:55:24;101131.47;;;-0.07
40199;BMP280;25906;43.536;26.068;2024-01-30T03:58:09;101130.50;;;-0.11
40199;BMP280;25906;43.536;26.068;2024-01-30T04:00:55;101126.72;;;0.00
40199;BMP280;25906;43.536;26.068;2024-01-30T04:03:41;101126.50;;;-0.04
40199;BMP280;25906;43.536;26.068;2024-01-30T04:06:26;101122.34;;;-0.23
40199;BMP280;25906;43.536;26.068;2024-01-30T04:09:15;101133.75;;;-0.19
40199;BMP280;25906;43.536;26.068;2024-01-30T04:12:00;101133.75;;;-0.19
40199;BMP280;25906;43.536;26.068;2024-01-30T04:14:48;101134.25;;;-0.17
40199;BMP280;25906;43.536;26.068;2024-01-30T04:17:33;101133.53;;;-0.23
40199;BMP280;25906;43.536;26.068;2024-01-30T04:20:19;101137.13;;;-0.19
40199;BMP280;25906;43.536;26.068;2024-01-30T04:23:04;101136.50;;;-0.11
40199;BMP280;25906;43.536;26.068;2024-01-30T04:25:49;101137.19;;;-0.24
40199;BMP280;25906;43.536;26.068;2024-01-30T04:28:35;101143.22;;;0.09
40199;BMP280;25906;43.536;26.068;2024-01-30T04:31:20;101137.81;;;-0.13
40199;BMP280;25906;43.536;26.068;2024-01-30T04:34:06;101143.31;;;0.04
40199;BMP280;25906;43.536;26.068;2024-01-30T04:36:51;101139.47;;;-0.17
40199;BMP280;25906;43.536;26.068;2024-01-30T04:39:37;101151.63;;;0.06
40199;BMP280;25906;43.536;26.068;2024-01-30T04:42:22;101153.84;;;-0.06
40199;BMP280;25906;43.536;26.068;2024-01-30T04:45:08;101148.25;;;-0.13
40199;BMP280;25906;43.536;26.068;2024-01-30T04:47:54;101148.03;;;-0.17
40199;BMP280;25906;43.536;26.068;2024-01-30T04:50:39;101154.91;;;-0.07
40199;BMP280;25906;43.536;26.068;2024-01-30T04:53:25;101150.19;;;-0.05
40199;BMP280;25906;43.536;26.068;2024-01-30T04:56:10;101149.16;;;-0.23
40199;BMP280;25906;43.536;26.068;2024-01-30T04:58:56;101152.63;;;-0.09
40199;BMP280;25906;43.536;26.068;2024-01-30T05:01:41;101151.13;;;-0.15
40199;BMP280;25906;43.536;26.068;2024-01-30T05:04:27;101153.88;;;-0.25
40199;BMP280;25906;43.536;26.068;2024-01-30T05:07:12;101157.69;;;-0.17
40199;BMP280;25906;43.536;26.068;2024-01-30T05:09:58;101154.63;;;-0.06
40199;BMP280;25906;43.536;26.068;2024-01-30T05:12:43;101158.00;;;-0.05
40199;BMP280;25906;43.536;26.068;2024-01-30T05:15:29;101159.56;;;-0.23
40199;BMP280;25906;43.536;26.068;2024-01-30T05:18:14;101157.50;;;-0.07
40199;BMP280;25906;43.536;26.068;2024-01-30T05:21:00;101160.47;;;-0.14
40199;BMP280;25906;43.536;26.068;2024-01-30T05:23:45;101169.34;;;-0.15
40199;BMP280;25906;43.536;26.068;2024-01-30T05:26:31;101164.75;;;-0.23
40199;BMP280;25906;43.536;26.068;2024-01-30T05:29:16;101164.69;;;0.01
40199;BMP280;25906;43.536;26.068;2024-01-30T05:32:02;101169.69;;;-0.03
40199;BMP280;25906;43.536;26.068;2024-01-30T05:34:48;101161.19;;;-0.08
40199;BMP280;25906;43.536;26.068;2024-01-30T05:37:35;101167.94;;;-0.26
40199;BMP280;25906;43.536;26.068;2024-01-30T05:40:21;101166.72;;;0.04
40199;BMP280;25906;43.536;26.068;2024-01-30T05:43:06;101170.63;;;-0.12
40199;BMP280;25906;43.536;26.068;2024-01-30T05:45:52;101170.53;;;0.12
40199;BMP280;25906;43.536;26.068;2024-01-30T05:48:38;101173.34;;;-0.04
40199;BMP280;25906;43.536;26.068;2024-01-30T05:51:23;101171.53;;;-0.03
40199;BMP280;25906;43.536;26.068;2024-01-30T05:54:09;101168.00;;;0.07
40199;BMP280;25906;43.536;26.068;2024-01-30T05:56:55;101175.25;;;-0.09
40199;BMP280;25906;43.536;26.068;2024-01-30T05:59:40;101188.97;;;-0.04
40199;BMP280;25906;43.536;26.068;2024-01-30T06:02:26;101176.47;;;-0.02
40199;BMP280;25906;43.536;26.068;2024-01-30T06:05:11;101174.00;;;0.07
40199;BMP280;25906;43.536;26.068;2024-01-30T06:07:57;101174.81;;;0.21
40199;BMP280;25906;43.536;26.068;2024-01-30T06:10:42;101179.13;;;-0.07
40199;BMP280;25906;43.536;26.068;2024-01-30T06:13:28;101174.69;;;0.13
40199;BMP280;25906;43.536;26.068;2024-01-30T06:16:15;101183.13;;;0.05
40199;BMP280;25906;43.536;26.068;2024-01-30T06:19:01;101178.47;;;0.34
40199;BMP280;25906;43.536;26.068;2024-01-30T06:21:47;101179.59;;;0.14
40199;BMP280;25906;43.536;26.068;2024-01-30T06:24:32;101181.84;;;0.02
40199;BMP280;25906;43.536;26.068;2024-01-30T06:27:19;101187.66;;;-0.01
40199;BMP280;25906;43.536;26.068;2024-01-30T06:30:05;101183.97;;;0.19
40199;BMP280;25906;43.536;26.068;2024-01-30T06:32:50;101193.28;;;0.06
40199;BMP280;25906;43.536;26.068;2024-01-30T06:35:36;101184.81;;;0.14
40199;BMP280;25906;43.536;26.068;2024-01-30T06:38:25;101194.88;;;0.34
40199;BMP280;25906;43.536;26.068;2024-01-30T06:41:10;101191.06;;;0.46
40199;BMP280;25906;43.536;26.068;2024-01-30T06:43:56;101193.09;;;0.49
40199;BMP280;25906;43.536;26.068;2024-01-30T06:46:41;101193.53;;;0.56
40199;BMP280;25906;43.536;26.068;2024-01-30T06:49:27;101187.09;;;0.48
40199;BMP280;25906;43.536;26.068;2024-01-30T06:52:12;101194.75;;;0.58
40199;BMP280;25906;43.536;26.068;2024-01-30T06:54:58;101198.91;;;0.59
40199;BMP280;25906;43.536;26.068;2024-01-30T06:57:43;101194.72;;;0.31
40199;BMP280;25906;43.536;26.068;2024-01-30T07:00:29;101194.75;;;0.58
40199;BMP280;25906;43.536;26.068;2024-01-30T07:03:14;101196.59;;;0.25
40199;BMP280;25906;43.536;26.068;2024-01-30T07:06:00;101188.13;;;0.33
40199;BMP280;25906;43.536;26.068;2024-01-30T07:08:45;101196.56;;;0.30
40199;BMP280;25906;43.536;26.068;2024-01-30T07:11:31;101200.59;;;0.36
40199;BMP280;25906;43.536;26.068;2024-01-30T07:14:17;101191.63;;;0.29
40199;BMP280;25906;43.536;26.068;2024-01-30T07:17:03;101198.66;;;0.42
40199;BMP280;25906;43.536;26.068;2024-01-30T07:19:48;101198.72;;;0.56
40199;BMP280;25906;43.536;26.068;2024-01-30T07:22:34;101191.75;;;0.51
40199;BMP280;25906;43.536;26.068;2024-01-30T07:25:19;101197.72;;;0.38
40199;BMP280;25906;43.536;26.068;2024-01-30T07:28:05;101196.94;;;0.37
40199;BMP280;25906;43.536;26.068;2024-01-30T07:30:50;101197.34;;;0.45
40199;BMP280;25906;43.536;26.068;2024-01-30T07:33:36;101197.09;;;0.60
40199;BMP280;25906;43.536;26.068;2024-01-30T07:36:21;101202.53;;;0.45
40199;BMP280;25906;43.536;26.068;2024-01-30T07:39:07;101198.09;;;0.45
40199;BMP280;25906;43.536;26.068;2024-01-30T07:41:52;101202.63;;;0.39
40199;BMP280;25906;43.536;26.068;2024-01-30T07:44:38;101198.59;;;0.47
40199;BMP280;25906;43.536;26.068;2024-01-30T07:47:23;101209.75;;;0.66
40199;BMP280;25906;43.536;26.068;2024-01-30T07:50:09;101207.28;;;0.56
40199;BMP280;25906;43.536;26.068;2024-01-30T07:52:59;101199.28;;;0.53
40199;BMP280;25906;43.536;26.068;2024-01-30T07:55:45;101204.28;;;0.49
40199;BMP280;25906;43.536;26.068;2024-01-30T07:58:31;101207.63;;;0.68
40199;BMP280;25906;43.536;26.068;2024-01-30T08:01:17;101206.03;;;0.86
40199;BMP280;25906;43.536;26.068;2024-01-30T08:04:02;101209.25;;;0.64
40199;BMP280;25906;43.536;26.068;2024-01-30T08:06:48;101212.31;;;0.53
40199;BMP280;25906;43.536;26.068;2024-01-30T08:09:33;101220.53;;;0.60
40199;BMP280;25906;43.536;26.068;2024-01-30T08:12:19;101221.63;;;0.72
40199;BMP280;25906;43.536;26.068;2024-01-30T08:15:05;101222.28;;;0.64
40199;BMP280;25906;43.536;26.068;2024-01-30T08:17:50;101223.00;;;0.84
40199;BMP280;25906;43.536;26.068;2024-01-30T08:20:41;101223.00;;;0.70
40199;BMP280;25906;43.536;26.068;2024-01-30T08:23:26;101220.78;;;0.77
40199;BMP280;25906;43.536;26.068;2024-01-30T08:26:11;101216.75;;;0.98
40199;BMP280;25906;43.536;26.068;2024-01-30T08:28:57;101222.50;;;0.82
40199;BMP280;25906;43.536;26.068;2024-01-30T08:31:42;101217.25;;;1.00
40199;BMP280;25906;43.536;26.068;2024-01-30T08:34:29;101224.88;;;0.64
40199;BMP280;25906;43.536;26.068;2024-01-30T08:37:14;101227.16;;;0.71
40199;BMP280;25906;43.536;26.068;2024-01-30T08:40:01;101220.91;;;0.99
40199;BMP280;25906;43.536;26.068;2024-01-30T08:42:48;101233.06;;;0.90
40199;BMP280;25906;43.536;26.068;2024-01-30T08:45:34;101221.94;;;0.85
40199;BMP280;25906;43.536;26.068;2024-01-30T08:48:19;101228.28;;;1.11
40199;BMP280;25906;43.536;26.068;2024-01-30T08:51:05;101217.25;;;1.14
40199;BMP280;25906;43.536;26.068;2024-01-30T08:53:53;101216.84;;;0.93
40199;BMP280;25906;43.536;26.068;2024-01-30T08:56:39;101220.97;;;0.81
40199;BMP280;25906;43.536;26.068;2024-01-30T08:59:24;101216.63;;;0.76
40199;BMP280;25906;43.536;26.068;2024-01-30T09:02:10;101225.91;;;0.82
40199;BMP280;25906;43.536;26.068;2024-01-30T09:04:57;101218.78;;;1.01
40199;BMP280;25906;43.536;26.068;2024-01-30T09:07:43;101206.81;;;0.87
40199;BMP280;25906;43.536;26.068;2024-01-30T09:10:28;101222.19;;;1.02
40199;BMP280;25906;43.536;26.068;2024-01-30T09:13:14;101205.81;;;0.83
40199;BMP280;25906;43.536;26.068;2024-01-30T09:15:59;101216.25;;;0.83
40199;BMP280;25906;43.536;26.068;2024-01-30T09:18:44;101215.50;;;0.96
40199;BMP280;25906;43.536;26.068;2024-01-30T09:21:30;101205.25;;;0.99
40199;BMP280;25906;43.536;26.068;2024-01-30T09:24:15;101203.53;;;1.08
40199;BMP280;25906;43.536;26.068;2024-01-30T09:27:01;101201.31;;;1.15
40199;BMP280;25906;43.536;26.068;2024-01-30T09:29:46;101200.81;;;1.13
40199;BMP280;25906;43.536;26.068;2024-01-30T09:32:32;101182.56;;;1.13
40199;BMP280;25906;43.536;26.068;2024-01-30T09:35:17;101192.53;;;1.11
40199;BMP280;25906;43.536;26.068;2024-01-30T09:38:03;101188.38;;;1.10
40199;BMP280;25906;43.536;26.068;2024-01-30T09:40:54;101185.84;;;1.05
40199;BMP280;25906;43.536;26.068;2024-01-30T09:43:41;101183.63;;;1.12
40199;BMP280;25906;43.536;26.068;2024-01-30T09:46:31;101185.31;;;1.44
40199;BMP280;25906;43.536;26.068;2024-01-30T09:49:18;101185.38;;;1.17
40199;BMP280;25906;43.536;26.068;2024-01-30T09:52:05;101175.03;;;1.26
40199;BMP280;25906;43.536;26.068;2024-01-30T09:54:53;101177.88;;;1.38
40199;BMP280;25906;43.536;26.068;2024-01-30T09:57:39;101183.72;;;1.21
40199;BMP280;25906;43.536;26.068;2024-01-30T10:00:24;101178.03;;;1.33
40199;BMP280;25906;43.536;26.068;2024-01-30T10:03:12;101174.94;;;1.17
40199;BMP280;25906;43.536;26.068;2024-01-30T10:06:00;101174.56;;;1.24
40199;BMP280;25906;43.536;26.068;2024-01-30T10:08:46;101175.63;;;1.23
40199;BMP280;25906;43.536;26.068;2024-01-30T10:11:31;101163.00;;;1.38
40199;BMP280;25906;43.536;26.068;2024-01-30T10:14:18;101165.59;;;1.66
40199;BMP280;25906;43.536;26.068;2024-01-30T10:17:03;101167.66;;;1.41
40199;BMP280;25906;43.536;26.068;2024-01-30T10:19:49;101171.75;;;1.70
40199;BMP280;25906;43.536;26.068;2024-01-30T10:22:34;101169.06;;;1.61
40199;BMP280;25906;43.536;26.068;2024-01-30T10:25:21;101162.59;;;1.59
40199;BMP280;25906;43.536;26.068;2024-01-30T10:28:07;101166.75;;;1.46
40199;BMP280;25906;43.536;26.068;2024-01-30T10:30:59;101158.31;;;1.99
40199;BMP280;25906;43.536;26.068;2024-01-30T10:33:45;101161.72;;;2.08
40199;BMP280;25906;43.536;26.068;2024-01-30T10:36:40;101162.56;;;2.17
40199;BMP280;25906;43.536;26.068;2024-01-30T10:39:29;101172.13;;;2.21
40199;BMP280;25906;43.536;26.068;2024-01-30T10:42:17;101168.38;;;1.91
40199;BMP280;25906;43.536;26.068;2024-01-30T10:45:10;101159.50;;;2.15
40199;BMP280;25906;43.536;26.068;2024-01-30T10:47:59;101153.66;;;1.95
40199;BMP280;25906;43.536;26.068;2024-01-30T10:50:45;101160.22;;;1.93
40199;BMP280;25906;43.536;26.068;2024-01-30T10:53:31;101154.06;;;1.89
40199;BMP280;25906;43.536;26.068;2024-01-30T10:56:16;101148.16;;;1.97
40199;BMP280;25906;43.536;26.068;2024-01-30T10:59:02;101143.25;;;2.26
40199;BMP280;25906;43.536;26.068;2024-01-30T11:01:49;101146.09;;;2.16
40199;BMP280;25906;43.536;26.068;2024-01-30T11:04:36;101146.44;;;2.15
40199;BMP280;25906;43.536;26.068;2024-01-30T11:07:31;101143.41;;;2.30
40199;BMP280;25906;43.536;26.068;2024-01-30T11:10:17;101131.84;;;2.53
40199;BMP280;25906;43.536;26.068;2024-01-30T11:13:09;101127.41;;;2.54
40199;BMP280;25906;43.536;26.068;2024-01-30T11:15:55;101123.56;;;2.20
40199;BMP280;25906;43.536;26.068;2024-01-30T11:18:41;101127.19;;;2.42
40199;BMP280;25906;43.536;26.068;2024-01-30T11:21:26;101124.34;;;2.60
40199;BMP280;25906;43.536;26.068;2024-01-30T11:24:14;101122.84;;;2.76
40199;BMP280;25906;43.536;26.068;2024-01-30T11:26:59;101120.06;;;2.73
40199;BMP280;25906;43.536;26.068;2024-01-30T11:29:50;101113.47;;;2.75
40199;BMP280;25906;43.536;26.068;2024-01-30T11:32:36;101116.22;;;2.70
40199;BMP280;25906;43.536;26.068;2024-01-30T11:35:24;101116.09;;;2.75
40199;BMP280;25906;43.536;26.068;2024-01-30T11:38:11;101111.00;;;2.70
40199;BMP280;25906;43.536;26.068;2024-01-30T11:40:58;101109.66;;;2.90
40199;BMP280;25906;43.536;26.068;2024-01-30T11:43:53;101115.94;;;2.81
40199;BMP280;25906;43.536;26.068;2024-01-30T11:46:39;101107.47;;;2.75
40199;BMP280;25906;43.536;26.068;2024-01-30T11:49:24;101099.09;;;2.64
40199;BMP280;25906;43.536;26.068;2024-01-30T11:52:10;101101.34;;;2.88
40199;BMP280;25906;43.536;26.068;2024-01-30T11:54:56;101096.56;;;2.82
40199;BMP280;25906;43.536;26.068;2024-01-30T11:57:41;101090.56;;;2.98
40199;BMP280;25906;43.536;26.068;2024-01-30T12:00:27;101093.19;;;2.90
40199;BMP280;25906;43.536;26.068;2024-01-30T12:03:12;101088.13;;;3.02
40199;BMP280;25906;43.536;26.068;2024-01-30T12:05:58;101089.06;;;3.06
40199;BMP280;25906;43.536;26.068;2024-01-30T12:08:55;101078.88;;;3.04
40199;BMP280;25906;43.536;26.068;2024-01-30T12:11:47;101075.81;;;2.94
40199;BMP280;25906;43.536;26.068;2024-01-30T12:14:32;101078.88;;;2.96
40199;BMP280;25906;43.536;26.068;2024-01-30T12:17:28;101075.09;;;3.19
40199;BMP280;25906;43.536;26.068;2024-01-30T12:20:15;101072.38;;;2.67
40199;BMP280;25906;43.536;26.068;2024-01-30T12:23:03;101066.97;;;2.64
40199;BMP280;25906;43.536;26.068;2024-01-30T12:25:49;101067.13;;;2.59
40199;BMP280;25906;43.536;26.068;2024-01-30T12:28:34;101066.69;;;2.74
40199;BMP280;25906;43.536;26.068;2024-01-30T12:31:27;101066.56;;;2.96
40199;BMP280;25906;43.536;26.068;2024-01-30T12:34:16;101069.50;;;2.78
40199;BMP280;25906;43.536;26.068;2024-01-30T12:37:02;101063.19;;;2.79
40199;BMP280;25906;43.536;26.068;2024-01-30T12:39:48;101064.41;;;2.90
40199;BMP280;25906;43.536;26.068;2024-01-30T12:42:33;101060.13;;;2.85
40199;BMP280;25906;43.536;26.068;2024-01-30T12:45:19;101057.03;;;3.00
40199;BMP280;25906;43.536;26.068;2024-01-30T12:48:06;101056.78;;;3.19
40199;BMP280;25906;43.536;26.068;2024-01-30T12:50:52;101051.34;;;3.24
40199;BMP280;25906;43.536;26.068;2024-01-30T12:53:37;101045.34;;;3.15
40199;BMP280;25906;43.536;26.068;2024-01-30T12:56:24;101045.97;;;3.12
40199;BMP280;25906;43.536;26.068;2024-01-30T12:59:09;101050.59;;;3.32
40199;BMP280;25906;43.536;26.068;2024-01-30T13:01:55;101051.66;;;3.23
40199;BMP280;25906;43.536;26.068;2024-01-30T13:04:40;101039.19;;;3.20
40199;BMP280;25906;43.536;26.068;2024-01-30T13:07:26;101037.34;;;3.03
40199;BMP280;25906;43.536;26.068;2024-01-30T13:10:11;101031.38;;;3.11
40199;BMP280;25906;43.536;26.068;2024-01-30T13:12:57;101037.31;;;3.29
40199;BMP280;25906;43.536;26.068;2024-01-30T13:15:42;101041.81;;;3.20
40199;BMP280;25906;43.536;26.068;2024-01-30T13:18:28;101035.81;;;3.02
40199;BMP280;25906;43.536;26.068;2024-01-30T13:21:13;101034.75;;;3.03
40199;BMP280;25906;43.536;26.068;2024-01-30T13:24:00;101037.81;;;3.22
40199;BMP280;25906;43.536;26.068;2024-01-30T13:26:46;101043.22;;;3.17
40199;BMP280;25906;43.536;26.068;2024-01-30T13:29:32;101034.72;;;3.20
40199;BMP280;25906;43.536;26.068;2024-01-30T13:32:18;101028.72;;;2.94
40199;BMP280;25906;43.536;26.068;2024-01-30T13:35:04;101032.88;;;2.95
40199;BMP280;25906;43.536;26.068;2024-01-30T13:37:49;101027.03;;;2.89
40199;BMP280;25906;43.536;26.068;2024-01-30T13:40:35;101020.25;;;2.80
40199;BMP280;25906;43.536;26.068;2024-01-30T13:43:20;101030.91;;;2.92
40199;BMP280;25906;43.536;26.068;2024-01-30T13:46:06;101028.88;;;2.89
40199;BMP280;25906;43.536;26.068;2024-01-30T13:48:52;101019.78;;;3.12
40199;BMP280;25906;43.536;26.068;2024-01-30T13:51:38;101024.09;;;3.25
40199;BMP280;25906;43.536;26.068;2024-01-30T13:54:23;101017.81;;;3.09
40199;BMP280;25906;43.536;26.068;2024-01-30T13:57:09;101020.88;;;3.02
40199;BMP280;25906;43.536;26.068;2024-01-30T13:59:55;101013.19;;;3.06
40199;BMP280;25906;43.536;26.068;2024-01-30T14:02:40;101010.72;;;3.09
40199;BMP280;25906;43.536;26.068;2024-01-30T14:05:26;101008.41;;;3.08
40199;BMP280;25906;43.536;26.068;2024-01-30T14:08:15;101007.94;;;3.06
40199;BMP280;25906;43.536;26.068;2024-01-30T14:11:00;101006.72;;;3.12
40199;BMP280;25906;43.536;26.068;2024-01-30T14:13:45;101011.63;;;3.05
40199;BMP280;25906;43.536;26.068;2024-01-30T14:16:31;101009.00;;;2.96
40199;BMP280;25906;43.536;26.068;2024-01-30T14:19:16;101010.56;;;3.06
40199;BMP280;25906;43.536;26.068;2024-01-30T14:22:02;101005.81;;;2.91
40199;BMP280;25906;43.536;26.068;2024-01-30T14:24:47;101015.50;;;2.90
40199;BMP280;25906;43.536;26.068;2024-01-30T14:27:33;101023.06;;;2.92
40199;BMP280;25906;43.536;26.068;2024-01-30T14:30:19;101015.78;;;2.80
40199;BMP280;25906;43.536;26.068;2024-01-30T14:33:04;101013.47;;;2.70
40199;BMP280;25906;43.536;26.068;2024-01-30T14:35:50;101015.91;;;2.66
40199;BMP280;25906;43.536;26.068;2024-01-30T14:38:36;101009.91;;;2.49
40199;BMP280;25906;43.536;26.068;2024-01-30T14:41:21;101004.41;;;2.76
40199;BMP280;25906;43.536;26.068;2024-01-30T14:44:07;100995.94;;;2.70
40199;BMP280;25906;43.536;26.068;2024-01-30T14:46:53;100998.88;;;2.60
40199;BMP280;25906;43.536;26.068;2024-01-30T14:49:40;100991.03;;;2.60
40199;BMP280;25906;43.536;26.068;2024-01-30T14:52:25;101005.00;;;2.64
40199;BMP280;25906;43.536;26.068;2024-01-30T14:55:11;101002.38;;;2.47
40199;BMP280;25906;43.536;26.068;2024-01-30T14:57:56;100994.09;;;2.54
40199;BMP280;25906;43.536;26.068;2024-01-30T15:00:42;101001.13;;;2.45
40199;BMP280;25906;43.536;26.068;2024-01-30T15:03:28;100999.44;;;2.49
40199;BMP280;25906;43.536;26.068;2024-01-30T15:06:14;100999.47;;;2.57
40199;BMP280;25906;43.536;26.068;2024-01-30T15:09:00;100992.69;;;2.56
40199;BMP280;25906;43.536;26.068;2024-01-30T15:11:45;100995.75;;;2.50
40199;BMP280;25906;43.536;26.068;2024-01-30T15:14:31;101003.53;;;2.32
40199;BMP280;25906;43.536;26.068;2024-01-30T15:17:17;100997.97;;;2.17
40199;BMP280;25906;43.536;26.068;2024-01-30T15:20:03;101004.34;;;2.42
40199;BMP280;25906;43.536;26.068;2024-01-30T15:22:49;101005.38;;;2.32
40199;BMP280;25906;43.536;26.068;2024-01-30T15:25:34;101008.13;;;2.18
40199;BMP280;25906;43.536;26.068;2024-01-30T15:28:33;101008.78;;;2.41
40199;BMP280;25906;43.536;26.068;2024-01-30T15:31:18;101013.09;;;2.37
40199;BMP280;25906;43.536;26.068;2024-01-30T15:34:04;101009.72;;;2.28
40199;BMP280;25906;43.536;26.068;2024-01-30T15:36:49;101017.84;;;2.35
40199;BMP280;25906;43.536;26.068;2024-01-30T15:39:35;101019.31;;;2.58